BIEG

Egilsstaðir Airport

Egilsstaðir, Iceland
METAR BIEG 140000Z 14025G37KT 9000 RA BR SCT018 OVC025 08/04 Q0991 R04/290095
Observed Flight Rules
Dec-14 @ 00:00 UTC (44 minutes ago) Marginal Visual Flight Rules
Wind Visibility Clouds Conditions
140° at 25 knots
 Gusting to 37 knots
8,996 meters
  • Scattered at 1,800' AGL
  • Overcast at 2,500' AGL
  • Rain
  • Mist
Temperatures Readings
Current 8°C / 46°F
Dewpoint 4°C / 39°F
Humidity 76%
Altimeter 29.26" Hg
Pressure 991 hPa
Elevation 38
METAR BIEG 140000Z 14025G37KT 9000 RA BR SCT018 OVC025 08/04 Q0991 R04/290095
Observed Flight Rules
Dec-14 @ 00:00 UTC
(44 minutes ago)
MVFR
Wind Visibility
140° at 25 knots
 Gusting to 37 knots
8,996 meters
Clouds
  • Scattered at 1,800' AGL
  • Overcast at 2,500' AGL
Conditions
  • Rain
  • Mist
Temperature Dewpoint
8°C / 46°F 4°C / 39°F
Humidity Altimeter Pressure
76% 29.26" Hg 991 hPa